Time;durP1;ratioP1;P1;durP2;ratioP2;P2;SDS_P1;SDS_P2;PMS_P1;PMS_P2;Temp;Humidity;BMP_temperature;BMP_pressure;BME280_temperature;BME280_humidity;BME280_pressure;Samples;Min_cycle;Max_cycle;Signal;HPM_P1;HPM_P2
2022/01/14 00:00:20;;;;;;;;;10.20;10.20;;;;;3.75;81.54;101905.81;5066010;28;8860;-83
2022/01/14 00:02:49;;;;;;;;;1.00;1.00;;;;;3.76;81.28;101897.00;5065687;28;9015;-83
2022/01/14 00:05:17;;;;;;;;;6.20;6.00;;;;;3.77;81.82;101890.00;5068445;28;8852;-83
2022/01/14 00:07:44;;;;;;;;;7.00;7.00;;;;;3.83;81.50;101893.34;5069314;28;8844;-83
2022/01/14 00:10:12;;;;;;;;;10.60;9.80;;;;;3.82;81.73;101879.28;5066766;28;8990;-83
2022/01/14 00:12:47;;;;;;;;;6.00;6.00;;;;;3.85;81.40;101881.88;5067989;28;9505;-83
2022/01/14 00:15:24;;;;;;;;;9.00;9.00;;;;;3.88;81.45;101886.22;5066949;28;8851;-83
2022/01/14 00:17:52;;;;;;;;;11.40;9.20;;;;;3.89;81.02;101887.97;5064751;28;8864;-83
2022/01/14 00:20:20;;;;;;;;;4.00;3.00;;;;;3.87;81.37;101889.75;5066009;28;8858;-83
2022/01/14 00:22:48;;;;;;;;;8.20;8.20;;;;;3.88;81.43;101888.88;5066508;28;8894;-83
2022/01/14 00:33:31;;;;;;;;;1.00;1.00;;;;;3.86;81.66;101866.94;5067991;28;9258;-83
2022/01/14 00:35:59;;;;;;;;;7.00;6.40;;;;;3.85;81.13;101865.19;5067027;28;8966;-83
2022/01/14 00:38:27;;;;;;;;;10.60;9.20;;;;;3.84;81.28;101855.56;5066473;28;8864;-83
2022/01/14 00:40:55;;;;;;;;;10.40;9.20;;;;;3.83;81.79;101849.44;5067404;28;8970;-83
2022/01/14 00:43:22;;;;;;;;;8.20;8.20;;;;;3.84;81.76;101852.94;5068360;28;8867;-83
2022/01/14 00:45:51;;;;;;;;;6.80;6.80;;;;;3.85;81.74;101860.81;5067190;28;8844;-83
2022/01/14 00:48:19;;;;;;;;;8.60;7.80;;;;;3.84;81.21;101853.81;5066309;28;8836;-83
2022/01/14 00:50:46;;;;;;;;;0.80;0.60;;;;;3.80;81.78;101848.66;5065431;28;8864;-83
2022/01/14 00:53:14;;;;;;;;;7.00;6.00;;;;;3.75;81.23;101853.13;5064679;28;8866;-83
2022/01/14 00:55:50;;;;;;;;;6.00;6.00;;;;;3.72;81.73;101854.97;5065956;28;8839;-83
2022/01/14 01:01:03;;;;;;;;;4.00;4.00;;;;;3.69;81.85;101850.63;5065820;28;8894;-83
2022/01/14 01:03:32;;;;;;;;;7.00;7.00;;;;;3.64;81.79;101847.22;5065234;28;8859;-83
2022/01/14 01:06:00;;;;;;;;;9.40;8.60;;;;;3.57;81.99;101850.88;5064816;28;8933;-83
2022/01/14 01:08:29;;;;;;;;;6.80;6.20;;;;;3.50;81.89;101854.56;5066417;28;8848;-83
2022/01/14 01:10:57;;;;;;;;;8.80;8.80;;;;;3.43;81.89;101849.44;5067026;28;8993;-83
2022/01/14 01:13:28;;;;;;;;;13.40;11.60;;;;;3.35;82.91;101846.09;5065757;28;8855;-83
2022/01/14 01:15:56;;;;;;;;;10.80;8.80;;;;;3.29;82.69;101846.19;5063292;28;8840;-83
2022/01/14 01:18:24;;;;;;;;;7.00;6.80;;;;;3.23;82.81;101851.56;5064859;28;8862;-83
2022/01/14 01:20:52;;;;;;;;;6.20;4.40;;;;;3.19;82.89;101850.75;5064406;28;9201;-83
2022/01/14 01:23:20;;;;;;;;;2.20;0.60;;;;;3.16;82.49;101845.56;5065220;28;8859;-83
2022/01/14 01:25:52;;;;;;;;;8.00;6.80;;;;;3.18;82.94;101837.66;5063970;28;8848;-83
2022/01/14 01:28:20;;;;;;;;;9.00;8.00;;;;;3.16;82.80;101842.94;5064069;28;8858;-83
2022/01/14 01:31:04;;;;;;;;;3.20;1.80;;;;;3.15;82.98;101851.75;5064971;28;8840;-83
2022/01/14 01:33:32;;;;;;;;;9.00;9.00;;;;;3.13;82.38;101860.56;5065645;28;8859;-83
2022/01/14 01:35:59;;;;;;;;;5.20;3.00;;;;;3.08;83.01;101852.75;5064697;28;8840;-83
2022/01/14 01:38:27;;;;;;;;;9.40;7.00;;;;;3.02;82.78;101858.13;5065604;28;8954;-83
2022/01/14 01:40:55;;;;;;;;;8.20;6.00;;;;;2.97;83.35;101864.38;5065207;28;8856;-83
2022/01/14 01:43:25;;;;;;;;;6.40;6.40;;;;;2.94;83.46;101864.44;5064430;28;8878;-83
2022/01/14 01:45:54;;;;;;;;;4.40;4.40;;;;;2.88;82.80;101867.16;5064619;28;9551;-83
2022/01/14 01:48:22;;;;;;;;;6.20;6.20;;;;;2.83;82.97;101871.63;5063938;28;8848;-83
2022/01/14 01:50:50;;;;;;;;;10.80;10.00;;;;;2.78;83.37;101871.72;5063439;28;8860;-83
2022/01/14 01:53:18;;;;;;;;;6.20;6.00;;;;;2.76;82.76;101873.50;5064787;28;8848;-83
2022/01/14 01:55:45;;;;;;;;;9.00;9.00;;;;;2.76;82.85;101878.75;5065297;28;8894;-83
2022/01/14 01:58:13;;;;;;;;;4.60;4.60;;;;;2.74;83.29;101883.16;5064942;28;8844;-83
2022/01/14 02:00:41;;;;;;;;;9.20;9.20;;;;;2.70;83.62;101881.50;5065930;28;8831;-83
2022/01/14 02:03:09;;;;;;;;;9.20;7.00;;;;;2.64;83.30;101886.84;5065000;28;8875;-83
2022/01/14 02:05:37;;;;;;;;;6.40;5.00;;;;;2.54;83.30;101887.91;5063562;28;9211;-83
2022/01/14 02:08:04;;;;;;;;;9.80;6.40;;;;;2.44;83.41;101888.91;5063412;28;8876;-83
2022/01/14 02:10:33;;;;;;;;;6.00;4.80;;;;;2.36;83.17;101896.06;5064228;28;8909;-83
2022/01/14 02:13:01;;;;;;;;;14.40;11.20;;;;;2.28;83.42;101886.56;5063586;28;8866;-83
2022/01/14 02:15:43;;;;;;;;;12.40;11.60;;;;;2.20;83.80;101889.28;5063481;28;8865;-83
2022/01/14 02:23:45;;;;;;;;;6.60;4.80;;;;;2.05;83.93;101888.66;5063282;28;9022;-83
2022/01/14 02:26:12;;;;;;;;;9.20;9.20;;;;;2.02;83.74;101889.56;5061909;28;8855;-83
2022/01/14 02:28:40;;;;;;;;;9.40;9.40;;;;;2.00;84.46;101887.84;5062236;28;8880;-83
2022/01/14 02:31:08;;;;;;;;;5.80;5.60;;;;;1.98;84.15;101884.38;5063590;28;9465;-83
2022/01/14 02:33:36;;;;;;;;;8.60;5.80;;;;;1.96;84.23;101878.28;5063882;28;8848;-83
2022/01/14 02:36:03;;;;;;;;;6.40;5.60;;;;;1.98;84.35;101876.50;5064525;28;8844;-83
2022/01/14 02:38:32;;;;;;;;;10.00;9.60;;;;;2.01;83.90;101872.06;5063226;28;8840;-83
2022/01/14 02:41:00;;;;;;;;;12.00;8.20;;;;;2.08;84.39;101863.22;5062897;28;9489;-83
2022/01/14 02:43:28;;;;;;;;;12.20;11.40;;;;;2.18;84.16;101859.53;5063404;28;8856;-83
2022/01/14 02:45:57;;;;;;;;;6.00;6.00;;;;;2.25;84.13;101862.94;5062886;28;8868;-83
2022/01/14 02:48:25;;;;;;;;;7.80;7.20;;;;;2.29;83.26;101857.59;5061888;28;8872;-83
2022/01/14 02:50:59;;;;;;;;;9.60;9.60;;;;;2.34;83.83;101854.94;5062025;28;8844;-83
2022/01/14 02:53:29;;;;;;;;;9.40;9.40;;;;;2.39;83.44;101853.09;5060979;28;9130;-83
2022/01/14 02:55:57;;;;;;;;;9.60;9.20;;;;;2.40;83.22;101839.94;5062198;28;8856;-83
2022/01/14 02:58:25;;;;;;;;;8.20;7.60;;;;;2.41;83.04;101839.03;5062369;28;9355;-83
2022/01/14 03:00:53;;;;;;;;;4.00;4.00;;;;;2.39;83.33;101837.31;5061848;28;9333;-83
2022/01/14 03:03:23;;;;;;;;;7.20;6.60;;;;;2.34;84.04;101834.75;5062731;28;8844;-83
2022/01/14 03:05:51;;;;;;;;;10.40;10.40;;;;;2.32;83.86;101820.78;5062606;28;8847;-83
2022/01/14 03:08:18;;;;;;;;;10.40;9.40;;;;;2.31;83.66;101824.31;5063310;28;8847;-83
2022/01/14 03:10:46;;;;;;;;;7.80;7.80;;;;;2.33;84.00;101824.28;5063361;28;8883;-83
2022/01/14 03:13:14;;;;;;;;;7.40;7.00;;;;;2.33;83.91;101817.25;5064340;28;9118;-83
2022/01/14 03:15:41;;;;;;;;;1.40;1.00;;;;;2.31;83.78;101819.06;5063821;28;8836;-83
2022/01/14 03:18:10;;;;;;;;;8.40;6.00;;;;;2.31;83.51;101812.91;5063557;28;8863;-83
2022/01/14 03:20:51;;;;;;;;;3.80;3.20;;;;;2.32;83.26;101815.53;5064310;28;8866;-83
2022/01/14 03:23:19;;;;;;;;;7.00;6.00;;;;;2.29;83.38;101801.56;5063513;28;8862;-83
2022/01/14 03:25:51;;;;;;;;;9.60;8.20;;;;;2.24;83.56;101801.66;5063116;28;9206;-83
2022/01/14 03:28:18;;;;;;;;;7.80;7.00;;;;;2.23;83.81;101796.41;5063575;28;9492;-83
2022/01/14 03:30:46;;;;;;;;;8.60;6.80;;;;;2.27;84.03;101800.75;5063690;28;8852;-83
2022/01/14 03:33:14;;;;;;;;;7.00;7.00;;;;;2.29;83.88;101802.44;5062136;28;8866;-83
2022/01/14 03:35:42;;;;;;;;;8.60;8.60;;;;;2.29;83.22;101796.31;5063334;28;9229;-83
2022/01/14 03:38:09;;;;;;;;;6.80;6.60;;;;;2.26;83.81;101794.59;5062146;28;8882;-83
2022/01/14 03:40:37;;;;;;;;;10.80;9.00;;;;;2.22;83.53;101789.44;5066195;28;8848;-83
2022/01/14 03:43:05;;;;;;;;;4.80;3.00;;;;;2.17;83.95;101784.25;5067341;28;8856;-83
2022/01/14 03:45:32;;;;;;;;;6.40;6.40;;;;;2.12;83.49;101778.19;5065067;28;8844;-83
2022/01/14 03:48:00;;;;;;;;;6.40;4.80;;;;;2.07;83.53;101787.94;5065980;28;8890;-83
2022/01/14 03:50:28;;;;;;;;;8.20;8.20;;;;;2.02;83.50;101784.50;5065643;28;8870;-83
2022/01/14 03:52:55;;;;;;;;;7.00;7.00;;;;;1.97;83.73;101788.94;5065815;28;8965;-83
2022/01/14 03:55:23;;;;;;;;;12.00;10.00;;;;;1.92;84.18;101788.16;5065589;28;8844;-83
2022/01/14 03:57:51;;;;;;;;;11.80;10.60;;;;;1.90;84.32;101794.31;5065724;28;8852;-83
2022/01/14 04:00:19;;;;;;;;;7.00;6.00;;;;;1.85;84.25;101790.88;5066301;28;9520;-83
2022/01/14 04:02:46;;;;;;;;;7.40;7.40;;;;;1.80;84.26;101788.34;5065845;28;9014;-83
2022/01/14 04:05:14;;;;;;;;;6.60;6.20;;;;;1.76;84.14;101794.50;5064877;28;9632;-83
2022/01/14 04:07:42;;;;;;;;;8.60;8.20;;;;;1.73;84.36;101794.56;5064814;28;9500;-83
2022/01/14 04:10:12;;;;;;;;;6.00;5.60;;;;;1.69;83.95;101798.13;5065693;28;8860;-83
2022/01/14 04:12:51;;;;;;;;;9.00;9.00;;;;;1.69;84.29;101790.25;5065820;28;8844;-84
2022/01/14 04:18:04;;;;;;;;;6.20;4.40;;;;;1.59;84.32;101803.53;5064784;28;8863;-83
2022/01/14 04:20:31;;;;;;;;;6.60;6.00;;;;;1.52;84.73;101797.47;5066557;28;8852;-83
2022/01/14 04:22:59;;;;;;;;;8.20;7.40;;;;;1.44;84.90;101794.09;5065757;28;8860;-83
2022/01/14 04:25:27;;;;;;;;;3.20;3.20;;;;;1.37;84.57;101795.03;5066851;28;8884;-82
2022/01/14 04:27:54;;;;;;;;;7.00;6.00;;;;;1.32;84.52;101794.25;5066001;28;9148;-82
2022/01/14 04:30:22;;;;;;;;;9.40;6.80;;;;;1.27;85.14;101797.81;5066393;28;8836;-83
2022/01/14 04:32:50;;;;;;;;;0.20;0.00;;;;;1.21;84.63;101808.41;5066028;28;8853;-83
2022/01/14 04:35:19;;;;;;;;;6.60;6.60;;;;;1.16;85.42;101797.94;5068597;28;8892;-83
2022/01/14 04:37:46;;;;;;;;;6.00;6.00;;;;;1.11;84.99;101794.50;5069772;28;8864;-83
2022/01/14 04:40:14;;;;;;;;;13.80;10.80;;;;;1.10;85.13;101795.41;5065464;28;9481;-83
2022/01/14 04:42:43;;;;;;;;;7.00;7.00;;;;;1.11;85.54;101791.88;5067369;28;9030;-83
2022/01/14 04:45:11;;;;;;;;;11.40;10.80;;;;;1.11;84.80;101786.63;5066970;28;8876;-83
2022/01/14 04:47:45;;;;;;;;;9.80;7.20;;;;;1.11;84.80;101784.03;5067213;28;8848;-83
2022/01/14 04:50:13;;;;;;;;;9.40;8.80;;;;;1.13;84.82;101787.47;5065735;28;8832;-83
2022/01/14 04:52:41;;;;;;;;;13.40;12.20;;;;;1.14;85.00;101791.84;5065433;28;8840;-83
2022/01/14 04:55:09;;;;;;;;;7.80;6.20;;;;;1.18;84.86;101790.03;5064374;28;8918;-83
2022/01/14 04:57:36;;;;;;;;;9.00;7.00;;;;;1.26;84.76;101783.84;5066445;28;8904;-83
2022/01/14 05:00:04;;;;;;;;;10.00;9.40;;;;;1.37;85.11;101781.06;5065486;28;8852;-82
2022/01/14 05:02:32;;;;;;;;;12.80;12.40;;;;;1.56;84.75;101787.81;5064131;28;8848;-83
2022/01/14 05:05:00;;;;;;;;;10.40;7.40;;;;;1.75;84.49;101776.16;5065383;28;8867;-83
2022/01/14 05:07:27;;;;;;;;;8.60;8.60;;;;;1.86;83.58;101769.88;5065065;28;8851;-83
2022/01/14 05:10:15;;;;;;;;;10.80;7.80;;;;;1.99;83.80;101768.75;5065532;28;8884;-83
2022/01/14 05:12:47;;;;;;;;;9.80;9.00;;;;;2.12;83.76;101765.06;5064817;28;8974;-83
2022/01/14 05:15:15;;;;;;;;;6.40;5.60;;;;;2.23;83.80;101771.03;5063082;28;8848;-83
2022/01/14 05:17:42;;;;;;;;;12.00;10.80;;;;;2.34;83.30;101771.69;5064681;28;8937;-83
2022/01/14 05:20:10;;;;;;;;;9.00;9.00;;;;;2.37;82.95;101773.41;5063974;28;8850;-83
2022/01/14 05:22:38;;;;;;;;;9.40;7.80;;;;;2.38;83.05;101770.75;5065881;28;9481;-83
2022/01/14 05:25:05;;;;;;;;;6.60;6.00;;;;;2.40;83.04;101768.09;5064221;28;9169;-83
2022/01/14 05:27:33;;;;;;;;;7.00;6.60;;;;;2.43;83.19;101771.53;5063502;28;8871;-83
2022/01/14 05:30:01;;;;;;;;;4.00;4.00;;;;;2.43;83.05;101775.94;5063472;28;8906;-83
2022/01/14 05:32:29;;;;;;;;;4.00;2.20;;;;;2.40;83.32;101781.22;5063939;28;8829;-83
2022/01/14 05:34:57;;;;;;;;;5.00;3.60;;;;;2.33;83.17;101785.72;5060284;28;8860;-83
2022/01/14 05:37:24;;;;;;;;;6.00;6.00;;;;;2.23;83.37;101791.16;5062360;28;8883;-83
2022/01/14 05:39:53;;;;;;;;;7.40;6.60;;;;;2.10;83.51;101785.25;5062648;28;9150;-83
2022/01/14 05:42:21;;;;;;;;;9.00;9.00;;;;;1.99;83.59;101788.94;5060146;28;8886;-83
2022/01/14 05:44:48;;;;;;;;;7.00;6.00;;;;;1.89;83.83;101785.56;5062891;28;8855;-83
2022/01/14 05:47:16;;;;;;;;;9.20;7.80;;;;;1.79;84.30;101783.97;5061655;28;8856;-83
2022/01/14 05:49:45;;;;;;;;;9.80;9.40;;;;;1.72;83.54;101792.81;5061342;28;8872;-83
2022/01/14 05:52:12;;;;;;;;;7.60;7.60;;;;;1.64;84.46;101793.81;5060231;28;8864;-82
2022/01/14 05:54:40;;;;;;;;;10.40;9.60;;;;;1.53;84.12;101799.19;5060913;28;8860;-82
2022/01/14 05:57:08;;;;;;;;;6.60;6.60;;;;;1.43;84.83;101794.97;5059651;28;8889;-83
2022/01/14 05:59:35;;;;;;;;;7.40;6.60;;;;;1.33;84.85;101796.00;5060115;28;8863;-84
2022/01/14 06:02:04;;;;;;;;;11.40;9.60;;;;;1.24;84.67;101790.88;5058437;28;9714;-83
2022/01/14 06:04:32;;;;;;;;;5.60;5.60;;;;;1.17;84.87;101785.69;5067700;28;8863;-83
2022/01/14 06:06:59;;;;;;;;;12.60;10.80;;;;;1.10;85.52;101784.03;5065546;28;8863;-83
2022/01/14 06:09:27;;;;;;;;;5.80;4.00;;;;;1.04;84.88;101790.22;5063465;28;8872;-83
2022/01/14 06:11:56;;;;;;;;;6.60;6.60;;;;;1.00;85.56;101785.88;5056857;28;8852;-83
2022/01/14 06:14:23;;;;;;;;;10.00;10.00;;;;;1.00;85.44;101779.78;5057639;28;9530;-83
2022/01/14 06:16:51;;;;;;;;;8.60;7.80;;;;;0.98;85.36;101774.56;5058838;28;9562;-83
2022/01/14 06:19:19;;;;;;;;;2.00;1.80;;;;;0.96;84.70;101772.81;5054607;28;8857;-83
2022/01/14 06:21:47;;;;;;;;;5.20;5.20;;;;;0.92;85.45;101769.38;5057678;28;9567;-83
2022/01/14 06:24:14;;;;;;;;;9.80;9.00;;;;;0.87;85.35;101765.06;5055099;28;8852;-83
2022/01/14 06:26:42;;;;;;;;;10.40;9.40;;;;;0.81;85.32;101763.41;5058201;28;8855;-83
2022/01/14 06:29:10;;;;;;;;;9.80;8.40;;;;;0.76;85.11;101770.44;5056518;28;8859;-83
2022/01/14 06:31:37;;;;;;;;;11.20;10.00;;;;;0.73;85.32;101770.47;5055858;28;8860;-83
2022/01/14 06:34:05;;;;;;;;;9.60;9.40;;;;;0.68;85.74;101761.78;5051522;28;8847;-83
2022/01/14 06:36:34;;;;;;;;;11.00;9.00;;;;;0.64;85.57;101747.00;5052645;28;8856;-83
2022/01/14 06:39:01;;;;;;;;;9.40;9.40;;;;;0.60;85.57;101753.13;5052778;28;8882;-83
2022/01/14 06:41:29;;;;;;;;;9.80;7.80;;;;;0.57;85.46;101761.03;5053280;28;8887;-83
2022/01/14 06:43:58;;;;;;;;;10.00;8.40;;;;;0.57;85.77;101747.94;5052713;28;8840;-83
2022/01/14 06:46:25;;;;;;;;;7.80;7.80;;;;;0.56;85.58;101746.22;5050483;28;8853;-83
2022/01/14 06:48:53;;;;;;;;;9.40;8.60;;;;;0.53;86.23;101746.22;5054773;28;8868;-84
2022/01/14 06:51:21;;;;;;;;;2.80;1.40;;;;;0.50;85.99;101750.63;5055393;28;8859;-84
2022/01/14 06:53:49;;;;;;;;;9.60;9.20;;;;;0.46;85.93;101744.53;5053729;28;8884;-83
2022/01/14 06:56:17;;;;;;;;;7.40;7.00;;;;;0.43;85.80;101755.06;5052363;28;8863;-83
2022/01/14 06:58:45;;;;;;;;;6.60;5.80;;;;;0.41;85.22;101755.94;5050848;28;8848;-83
2022/01/14 07:01:15;;;;;;;;;11.40;9.80;;;;;0.38;85.98;101749.00;5047856;28;9143;-83
2022/01/14 07:03:43;;;;;;;;;9.00;8.20;;;;;0.34;85.53;101743.78;5050859;28;8871;-83
2022/01/14 07:06:11;;;;;;;;;11.40;9.80;;;;;0.33;85.65;101753.38;5051107;28;9110;-83
2022/01/14 07:08:39;;;;;;;;;5.20;5.20;;;;;0.31;85.88;101742.06;5052621;28;8982;-83
2022/01/14 07:11:06;;;;;;;;;9.20;7.00;;;;;0.29;86.05;101746.47;5053256;28;9156;-83
2022/01/14 07:13:34;;;;;;;;;3.40;1.40;;;;;0.25;86.19;101744.75;5052929;28;8860;-83
2022/01/14 07:16:03;;;;;;;;;9.60;8.60;;;;;0.20;86.10;101746.56;5057059;28;9098;-84
2022/01/14 07:18:30;;;;;;;;;5.20;3.60;;;;;0.18;86.34;101737.81;5057494;28;8998;-83
2022/01/14 07:20:58;;;;;;;;;9.00;9.00;;;;;0.16;86.10;101736.97;5056996;28;8844;-83
2022/01/14 07:23:26;;;;;;;;;5.60;5.60;;;;;0.17;85.88;101730.00;5056669;28;8921;-83
2022/01/14 07:25:54;;;;;;;;;5.60;4.00;;;;;0.21;85.43;101723.84;5056685;28;9185;-83
2022/01/14 07:28:22;;;;;;;;;11.80;10.20;;;;;0.22;86.05;101721.22;5057870;28;9571;-83
2022/01/14 07:30:49;;;;;;;;;8.20;7.40;;;;;0.25;85.27;101722.94;5055852;28;9130;-83
2022/01/14 07:33:17;;;;;;;;;17.20;15.60;;;;;0.26;85.89;101722.06;5060010;28;9067;-83
2022/01/14 07:35:45;;;;;;;;;9.60;8.20;;;;;0.28;85.30;101734.25;5057179;28;9164;-83
2022/01/14 07:38:13;;;;;;;;;2.20;2.20;;;;;0.33;86.03;101737.69;5056963;28;9106;-83
2022/01/14 07:40:40;;;;;;;;;6.80;6.60;;;;;0.35;85.63;101735.06;5058170;28;8875;-83
2022/01/14 07:43:09;;;;;;;;;13.80;13.80;;;;;0.37;85.60;101734.16;5059577;28;9497;-83
2022/01/14 07:45:37;;;;;;;;;6.40;6.20;;;;;0.39;85.36;101737.63;5058266;28;8856;-83
2022/01/14 07:48:05;;;;;;;;;12.40;10.60;;;;;0.39;85.15;101732.38;5056559;28;8856;-83
2022/01/14 07:50:33;;;;;;;;;9.00;8.40;;;;;0.37;85.24;101718.44;5055551;28;8871;-83
2022/01/14 07:53:00;;;;;;;;;11.60;10.00;;;;;0.33;85.43;101732.44;5058656;28;9509;-83
2022/01/14 07:55:31;;;;;;;;;3.80;3.80;;;;;0.29;85.57;101725.50;5058750;28;8848;-83
2022/01/14 07:58:00;;;;;;;;;11.80;10.80;;;;;0.27;85.60;101729.03;5054926;28;9226;-83
2022/01/14 08:00:28;;;;;;;;;8.20;7.00;;;;;0.26;85.83;101730.78;5058384;28;8858;-83
2022/01/14 08:02:56;;;;;;;;;9.00;7.80;;;;;0.28;85.14;101722.88;5058772;28;9513;-83
2022/01/14 08:05:24;;;;;;;;;10.00;8.40;;;;;0.29;85.77;101728.13;5056042;28;8872;-83
2022/01/14 08:07:55;;;;;;;;;9.20;9.00;;;;;0.34;85.35;101721.09;5054588;28;9741;-83
2022/01/14 08:10:23;;;;;;;;;3.80;3.40;;;;;0.40;84.87;101741.13;5052003;28;8868;-83
2022/01/14 08:12:51;;;;;;;;;9.40;9.20;;;;;0.47;85.59;101727.94;5055758;28;8852;-83
2022/01/14 08:15:24;;;;;;;;;13.00;12.80;;;;;0.52;85.06;101733.13;5055507;28;8837;-83
2022/01/14 08:17:53;;;;;;;;;16.40;13.80;;;;;0.56;84.88;101735.72;5054334;28;8876;-83
2022/01/14 08:20:22;;;;;;;;;9.40;9.40;;;;;0.63;84.88;101739.13;5056152;28;8945;-83
2022/01/14 08:22:49;;;;;;;;;7.40;6.60;;;;;0.69;85.09;101734.69;5055013;28;8912;-83
2022/01/14 08:25:17;;;;;;;;;7.80;7.80;;;;;0.69;84.74;101729.44;5055706;28;8876;-83
2022/01/14 08:27:45;;;;;;;;;9.80;9.20;;;;;0.67;84.73;101736.47;5056533;28;9315;-83
2022/01/14 08:30:14;;;;;;;;;12.40;12.00;;;;;0.63;84.65;101734.75;5054667;28;8848;-83
2022/01/14 08:32:41;;;;;;;;;9.20;9.20;;;;;0.60;84.63;101724.31;5052362;28;9141;-82
2022/01/14 08:35:09;;;;;;;;;9.20;8.60;;;;;0.59;85.08;101725.19;5054247;28;8906;-83
2022/01/14 08:37:37;;;;;;;;;7.80;7.80;;;;;0.62;84.67;101727.78;5056990;28;8856;-83
2022/01/14 08:40:04;;;;;;;;;9.80;8.80;;;;;0.69;84.91;101731.22;5053551;28;9523;-83
2022/01/14 08:42:32;;;;;;;;;11.80;11.20;;;;;0.78;84.75;101737.19;5055002;28;8873;-83
2022/01/14 08:45:00;;;;;;;;;14.20;13.60;;;;;1.00;84.77;101738.69;5055359;28;9054;-84
2022/01/14 08:47:29;;;;;;;;;6.00;6.00;;;;;1.21;84.67;101738.41;5052135;28;9612;-83
2022/01/14 08:49:56;;;;;;;;;12.40;9.40;;;;;1.38;84.10;101751.31;5055217;28;8872;-83
2022/01/14 08:52:24;;;;;;;;;9.00;9.00;;;;;1.49;84.52;101767.78;5054307;28;9791;-83
2022/01/14 08:54:52;;;;;;;;;7.80;7.80;;;;;1.56;83.87;101751.94;5052826;28;8855;-83
2022/01/14 08:57:24;;;;;;;;;9.60;9.40;;;;;1.57;83.24;101764.16;5052388;28;8875;-84
2022/01/14 08:59:52;;;;;;;;;11.20;9.40;;;;;1.59;84.01;101770.25;5050275;28;9125;-84
2022/01/14 09:02:21;;;;;;;;;14.40;12.40;;;;;1.68;83.49;101788.50;5054273;28;8852;-84
2022/01/14 09:04:48;;;;;;;;;8.00;7.40;;;;;1.82;83.82;101806.69;5052646;28;9666;-84
2022/01/14 09:07:17;;;;;;;;;13.80;13.80;;;;;1.90;83.31;101802.19;5052950;28;9161;-83
2022/01/14 09:09:44;;;;;;;;;12.40;12.00;;;;;1.93;83.42;101810.91;5056072;28;8859;-83
2022/01/14 09:12:15;;;;;;;;;12.60;10.40;;;;;1.95;82.96;101821.38;5055768;28;8986;-84
2022/01/14 09:14:43;;;;;;;;;9.40;9.20;;;;;1.93;83.65;101828.41;5050481;28;8874;-84
2022/01/14 09:17:12;;;;;;;;;12.80;9.60;;;;;1.94;82.67;101851.16;5051619;28;8994;-83
2022/01/14 09:19:40;;;;;;;;;24.20;20.40;;;;;1.94;83.19;101844.16;5053874;28;9165;-84
2022/01/14 09:22:08;;;;;;;;;16.80;14.20;;;;;1.96;83.06;101858.13;5051629;28;9501;-83
2022/01/14 09:24:48;;;;;;;;;16.20;14.80;;;;;1.97;82.77;101851.97;5051586;28;9610;-83
2022/01/14 09:27:16;;;;;;;;;12.40;9.20;;;;;1.99;83.17;101863.31;5052504;28;8864;-84
2022/01/14 09:29:44;;;;;;;;;15.60;13.40;;;;;2.04;83.21;101866.75;5048649;28;8848;-83
2022/01/14 09:32:11;;;;;;;;;15.60;12.60;;;;;2.06;83.75;101864.97;5051848;28;8848;-83
2022/01/14 09:34:39;;;;;;;;;9.20;9.20;;;;;2.08;82.99;101880.72;5052457;28;8870;-83
2022/01/14 09:37:07;;;;;;;;;14.20;13.00;;;;;2.07;82.93;101869.34;5048431;28;8856;-83
2022/01/14 09:39:36;;;;;;;;;12.20;10.80;;;;;2.06;83.07;101875.47;5050469;28;8859;-83
2022/01/14 09:42:05;;;;;;;;;19.80;18.00;;;;;2.08;83.25;101881.59;5053515;28;9165;-83
2022/01/14 09:44:33;;;;;;;;;10.40;9.00;;;;;2.11;83.59;101873.66;5051587;28;8879;-84
2022/01/14 09:47:00;;;;;;;;;19.80;18.40;;;;;2.13;83.40;101865.78;5047123;28;9537;-84
2022/01/14 09:49:28;;;;;;;;;15.40;15.40;;;;;2.12;83.49;101859.63;5053468;28;8848;-84
2022/01/14 09:51:56;;;;;;;;;12.20;12.20;;;;;2.14;82.94;101859.63;5050239;28;9230;-84
2022/01/14 09:54:24;;;;;;;;;16.80;16.60;;;;;2.15;83.32;101856.97;5050762;28;8895;-84
2022/01/14 09:56:52;;;;;;;;;14.00;12.60;;;;;2.15;82.89;101862.25;5050917;28;8868;-83
2022/01/14 09:59:20;;;;;;;;;15.60;12.60;;;;;2.17;83.52;101870.94;5048826;28;8855;-84
2022/01/14 10:01:47;;;;;;;;;17.20;16.20;;;;;2.21;83.52;101861.28;5055222;28;8926;-84
2022/01/14 10:04:15;;;;;;;;;19.00;13.00;;;;;2.20;83.16;101852.50;5051286;28;8856;-83
2022/01/14 10:06:43;;;;;;;;;14.80;13.20;;;;;2.23;83.36;101857.72;5047938;28;8855;-83
2022/01/14 10:09:11;;;;;;;;;18.80;17.60;;;;;2.26;82.87;101846.31;5051579;28;8872;-83
2022/01/14 10:11:38;;;;;;;;;12.60;12.00;;;;;2.29;82.88;101852.34;5052174;28;8978;-84
2022/01/14 10:14:06;;;;;;;;;10.00;8.60;;;;;2.33;83.28;101845.28;5049721;28;8856;-84
2022/01/14 10:16:40;;;;;;;;;15.80;12.80;;;;;2.35;83.11;101852.25;5047058;28;9658;-84
2022/01/14 10:19:08;;;;;;;;;22.60;15.20;;;;;2.41;83.26;101867.09;5049373;28;8851;-84
2022/01/14 10:21:36;;;;;;;;;17.60;15.80;;;;;2.47;82.78;101862.59;5045561;28;8841;-84
2022/01/14 10:24:03;;;;;;;;;14.20;12.60;;;;;2.55;83.45;101860.72;5048936;28;8986;-84
2022/01/14 10:26:31;;;;;;;;;17.60;14.60;;;;;2.60;82.50;101844.84;5048808;28;8879;-84
2022/01/14 10:28:59;;;;;;;;;17.60;15.80;;;;;2.63;82.59;101850.94;5047804;28;9361;-84
2022/01/14 10:31:27;;;;;;;;;15.80;14.60;;;;;2.68;82.43;101861.38;5045758;28;8872;-84
2022/01/14 10:33:55;;;;;;;;;15.80;13.40;;;;;2.71;82.82;101854.28;5046619;28;8929;-84
2022/01/14 10:36:23;;;;;;;;;16.80;16.40;;;;;2.75;82.84;101848.09;5043818;28;9165;-84
2022/01/14 10:38:50;;;;;;;;;14.80;12.20;;;;;2.79;82.42;101839.25;5046166;28;8906;-84
2022/01/14 10:41:19;;;;;;;;;9.20;7.40;;;;;2.85;83.00;101835.63;5046923;28;8956;-84
2022/01/14 10:43:46;;;;;;;;;12.40;10.40;;;;;2.90;82.24;101842.56;5049526;28;9144;-84
2022/01/14 10:46:14;;;;;;;;;6.20;6.00;;;;;2.94;82.79;101827.59;5050007;28;8844;-84
2022/01/14 10:48:43;;;;;;;;;16.40;14.80;;;;;3.00;82.71;101833.59;5050317;28;8844;-84
2022/01/14 10:51:12;;;;;;;;;14.20;12.00;;;;;3.05;82.15;101831.75;5050526;28;8855;-84
2022/01/14 10:53:39;;;;;;;;;14.00;11.80;;;;;3.12;82.61;101816.72;5048037;28;8864;-84
2022/01/14 10:56:07;;;;;;;;;15.40;12.40;;;;;3.21;82.29;101816.53;5052930;28;9182;-84
2022/01/14 10:58:35;;;;;;;;;17.40;14.00;;;;;3.26;82.18;101809.41;5046501;28;8868;-84
2022/01/14 11:01:03;;;;;;;;;20.00;12.40;;;;;3.29;82.33;101806.72;5045545;28;9733;-84
2022/01/14 11:03:31;;;;;;;;;15.40;13.40;;;;;3.31;82.10;101805.78;5047412;28;8856;-85
2022/01/14 11:05:59;;;;;;;;;14.60;12.40;;;;;3.33;82.41;101803.97;5044584;28;9467;-84
2022/01/14 11:08:27;;;;;;;;;20.40;16.00;;;;;3.35;82.46;101799.56;5046977;28;8976;-84
2022/01/14 11:10:54;;;;;;;;;17.00;14.60;;;;;3.37;82.67;101791.63;5048128;28;8860;-85
2022/01/14 11:13:22;;;;;;;;;16.40;12.60;;;;;3.37;82.04;101795.13;5053046;28;8861;-85
2022/01/14 11:15:50;;;;;;;;;12.80;11.20;;;;;3.39;82.62;101789.84;5049993;28;8868;-85
2022/01/14 11:18:18;;;;;;;;;10.80;9.40;;;;;3.40;82.62;101787.16;5046879;28;8872;-85
2022/01/14 11:23:31;;;;;;;;;14.60;12.00;;;;;3.46;82.47;101784.41;5066033;28;8848;-84
2022/01/14 11:25:59;;;;;;;;;13.40;11.20;;;;;3.51;82.65;101789.56;5052045;28;8856;-85
2022/01/14 11:28:27;;;;;;;;;13.00;12.80;;;;;3.56;82.51;101793.84;5050699;28;8886;-85
2022/01/14 11:30:54;;;;;;;;;13.60;12.00;;;;;3.61;82.30;101796.38;5045557;28;8872;-85
2022/01/14 11:33:22;;;;;;;;;17.80;11.20;;;;;3.67;82.17;101790.97;5048638;28;9164;-85
2022/01/14 11:35:50;;;;;;;;;9.80;8.20;;;;;3.70;82.41;101791.78;5047044;28;8868;-84
2022/01/14 11:38:17;;;;;;;;;11.00;10.40;;;;;3.73;82.24;101787.31;5049621;28;9152;-85
2022/01/14 11:40:45;;;;;;;;;11.40;10.80;;;;;3.78;81.73;101782.81;5050917;28;8850;-85
2022/01/14 11:43:13;;;;;;;;;13.20;11.60;;;;;3.85;82.66;101783.53;5052518;28;9101;-85
2022/01/14 11:45:41;;;;;;;;;12.40;11.80;;;;;3.88;82.16;101786.09;5049253;28;8886;-85
2022/01/14 11:48:08;;;;;;;;;15.00;12.60;;;;;3.93;82.36;101781.56;5051488;28;9149;-85
2022/01/14 11:50:36;;;;;;;;;15.00;13.80;;;;;3.94;82.24;101786.81;5050484;28;8886;-85
2022/01/14 11:53:05;;;;;;;;;13.80;10.60;;;;;3.96;82.45;101789.44;5050962;28;8862;-85
2022/01/14 11:55:34;;;;;;;;;15.00;12.80;;;;;3.98;82.20;101782.34;5054147;28;8876;-85
2022/01/14 11:58:03;;;;;;;;;16.80;15.00;;;;;4.02;82.04;101773.44;5053039;28;9342;-85
2022/01/14 12:00:30;;;;;;;;;13.20;12.40;;;;;4.06;82.11;101780.41;5052477;28;9167;-85
2022/01/14 12:02:58;;;;;;;;;16.80;14.20;;;;;4.07;82.35;101782.13;5053324;28;8851;-85